createdAt,value
2023-03-03T00:00:51.943Z,55.06
2023-03-03T00:03:25.855Z,55.14
2023-03-03T00:05:58.759Z,54.67
2023-03-03T00:08:31.163Z,55.95
2023-03-03T00:11:02.986Z,55.82
2023-03-03T00:13:48.395Z,56.15
2023-03-03T00:16:29.112Z,55.38
2023-03-03T00:19:01.166Z,55.94
2023-03-03T00:21:41.303Z,55.19
2023-03-03T00:24:18.708Z,55.57
2023-03-03T00:26:55.737Z,55.96
2023-03-03T00:29:27.308Z,56.60
2023-03-03T00:32:10.810Z,54.60
2023-03-03T00:34:43.779Z,56.70
2023-03-03T00:37:35.801Z,56.57
2023-03-03T00:40:13.495Z,55.88
2023-03-03T00:42:55.970Z,55.91
2023-03-03T00:45:34.079Z,56.02
2023-03-03T00:48:20.700Z,55.74
2023-03-03T00:50:55.048Z,56.16
2023-03-03T00:53:30.161Z,54.76
2023-03-03T00:56:01.984Z,54.98
2023-03-03T00:58:33.785Z,54.49
2023-03-03T01:01:05.503Z,55.49
2023-03-03T01:03:46.047Z,55.40
2023-03-03T01:06:17.652Z,54.49
2023-03-03T01:08:49.296Z,55.70
2023-03-03T01:11:25.905Z,54.31
2023-03-03T01:13:57.977Z,55.56
2023-03-03T01:16:31.731Z,54.40
2023-03-03T01:19:03.588Z,56.57
2023-03-03T01:21:35.286Z,55.35
2023-03-03T01:24:07.147Z,56.74
2023-03-03T01:26:38.708Z,55.42
2023-03-03T01:29:10.305Z,54.72
2023-03-03T01:31:41.961Z,54.43
2023-03-03T01:34:13.757Z,56.52
2023-03-03T01:36:45.328Z,56.83
2023-03-03T01:39:17.097Z,56.84
2023-03-03T01:41:48.709Z,55.63
2023-03-03T01:44:20.356Z,55.17
2023-03-03T01:47:06.883Z,56.48
2023-03-03T01:50:00.018Z,55.79
2023-03-03T01:52:40.576Z,55.80
2023-03-03T01:55:29.183Z,56.50
2023-03-03T01:58:11.950Z,55.59
2023-03-03T02:00:51.019Z,56.73
2023-03-03T02:03:24.752Z,55.73
2023-03-03T02:06:06.089Z,57.18
2023-03-03T02:08:51.464Z,55.46
2023-03-03T02:11:23.285Z,56.50
2023-03-03T02:13:55.184Z,55.45
2023-03-03T02:16:28.486Z,54.31
2023-03-03T02:19:00.267Z,55.36
2023-03-03T02:21:32.044Z,55.12
2023-03-03T02:24:16.352Z,53.94
2023-03-03T02:26:48.757Z,55.32
2023-03-03T02:29:20.415Z,54.94
2023-03-03T02:31:52.165Z,55.21
2023-03-03T02:34:26.550Z,55.70
2023-03-03T02:36:58.201Z,56.16
2023-03-03T02:39:29.802Z,57.16
2023-03-03T02:42:21.813Z,56.83
2023-03-03T02:44:57.765Z,57.99
2023-03-03T02:47:29.397Z,57.81
2023-03-03T02:50:01.144Z,59.06
2023-03-03T02:52:32.731Z,56.09
2023-03-03T02:55:04.817Z,57.84
2023-03-03T02:57:36.414Z,57.94
2023-03-03T03:00:09.718Z,56.50
2023-03-03T03:02:41.328Z,57.75
2023-03-03T03:05:13.536Z,58.32
2023-03-03T03:07:45.356Z,57.85
2023-03-03T03:10:17.825Z,56.91
2023-03-03T03:12:49.456Z,58.27
2023-03-03T03:15:21.488Z,56.56
2023-03-03T03:17:53.150Z,57.60
2023-03-03T03:20:24.901Z,57.67
2023-03-03T03:22:57.208Z,57.65
2023-03-03T03:25:28.814Z,56.44
2023-03-03T03:28:02.013Z,56.66
2023-03-03T03:30:35.202Z,57.13
2023-03-03T03:33:08.127Z,57.84
2023-03-03T03:35:40.082Z,57.91
2023-03-03T03:38:12.969Z,57.48
2023-03-03T03:40:44.584Z,55.91
2023-03-03T03:43:16.609Z,57.25
2023-03-03T03:45:49.097Z,57.01
2023-03-03T03:48:21.476Z,55.69
2023-03-03T03:50:54.755Z,55.04
2023-03-03T03:53:28.827Z,56.28
2023-03-03T03:56:00.720Z,57.72
2023-03-03T03:58:32.371Z,57.68
2023-03-03T04:01:08.878Z,58.72
2023-03-03T04:03:46.421Z,57.73
2023-03-03T04:06:22.178Z,57.11
2023-03-03T04:08:56.079Z,57.82
2023-03-03T04:11:28.384Z,56.49
2023-03-03T04:14:00.168Z,57.51
2023-03-03T04:16:32.257Z,57.95
2023-03-03T04:19:04.267Z,59.03
2023-03-03T04:21:38.177Z,58.62
2023-03-03T04:24:09.910Z,58.21
2023-03-03T04:26:43.126Z,57.27
2023-03-03T04:29:16.308Z,56.94
2023-03-03T04:31:49.465Z,57.08
2023-03-03T04:34:22.803Z,57.64
2023-03-03T04:36:54.426Z,56.82
2023-03-03T04:39:26.168Z,57.86
2023-03-03T04:41:58.183Z,57.44
2023-03-03T04:44:30.969Z,57.59
2023-03-03T04:47:04.277Z,57.16
2023-03-03T04:49:36.499Z,56.88
2023-03-03T04:52:08.129Z,57.35
2023-03-03T04:54:39.954Z,57.05
2023-03-03T04:57:11.699Z,57.76
2023-03-03T04:59:43.516Z,56.68
2023-03-03T05:02:15.562Z,57.46
2023-03-03T05:04:47.390Z,55.21
2023-03-03T05:07:19.001Z,55.27
2023-03-03T05:09:50.711Z,55.84
2023-03-03T05:12:22.317Z,54.18
2023-03-03T05:14:53.932Z,54.77
2023-03-03T05:17:25.727Z,54.38
2023-03-03T05:19:57.368Z,54.50
2023-03-03T05:22:29.006Z,54.40
2023-03-03T05:25:00.696Z,54.87
2023-03-03T05:27:32.291Z,55.21
2023-03-03T05:30:04.876Z,54.19
2023-03-03T05:32:36.855Z,52.56
2023-03-03T05:35:08.763Z,53.00
2023-03-03T05:37:40.405Z,53.38
2023-03-03T05:40:12.975Z,53.74
2023-03-03T05:42:45.494Z,53.80
2023-03-03T05:45:17.927Z,52.68
2023-03-03T05:47:50.744Z,54.48
2023-03-03T05:50:23.863Z,53.76
2023-03-03T05:52:55.475Z,54.75
2023-03-03T05:55:27.105Z,54.60
2023-03-03T05:57:58.757Z,55.25
2023-03-03T06:00:30.367Z,54.58
2023-03-03T06:03:02.013Z,54.41
2023-03-03T06:05:33.778Z,54.70
2023-03-03T06:08:05.475Z,54.22
2023-03-03T06:10:37.201Z,54.03
2023-03-03T06:13:11.485Z,53.88
2023-03-03T06:15:43.542Z,53.62
2023-03-03T06:18:15.298Z,54.59
2023-03-03T06:20:51.970Z,54.41
2023-03-03T06:23:23.654Z,54.23
2023-03-03T06:25:55.310Z,54.85
2023-03-03T06:28:26.970Z,53.95
2023-03-03T06:30:58.613Z,54.02
2023-03-03T06:33:30.234Z,54.04
2023-03-03T06:36:03.552Z,54.42
2023-03-03T06:38:37.010Z,55.68
2023-03-03T06:41:08.705Z,53.75
2023-03-03T06:43:40.480Z,54.50
2023-03-03T06:46:12.234Z,55.15
2023-03-03T06:48:43.898Z,54.07
2023-03-03T06:51:34.829Z,55.02
2023-03-03T06:54:16.098Z,54.88
2023-03-03T06:56:52.833Z,56.01
2023-03-03T06:59:24.506Z,55.54
2023-03-03T07:01:56.401Z,54.97
2023-03-03T07:04:33.564Z,55.79
2023-03-03T07:07:15.300Z,56.09
2023-03-03T07:09:49.857Z,56.82
2023-03-03T07:12:27.374Z,54.54
2023-03-03T07:15:11.410Z,56.35
2023-03-03T07:17:51.105Z,56.63
2023-03-03T07:20:25.354Z,57.26
2023-03-03T07:22:57.312Z,57.07
2023-03-03T07:25:34.720Z,56.93
2023-03-03T07:28:26.161Z,57.10
2023-03-03T07:30:58.809Z,57.90
2023-03-03T07:33:45.076Z,56.09
2023-03-03T07:36:29.124Z,56.16
2023-03-03T07:39:04.536Z,57.76
2023-03-03T07:41:36.182Z,58.65
2023-03-03T07:44:22.461Z,57.86
2023-03-03T07:46:54.074Z,57.92
2023-03-03T07:49:43.688Z,58.85
2023-03-03T07:52:29.270Z,57.86
2023-03-03T07:55:19.871Z,57.72
2023-03-03T07:57:54.365Z,57.05
2023-03-03T08:00:29.037Z,56.86
2023-03-03T08:03:05.415Z,56.64
2023-03-03T08:05:42.935Z,57.39
2023-03-03T08:08:30.941Z,58.76
2023-03-03T08:11:04.486Z,57.26
2023-03-03T08:13:36.065Z,57.34
2023-03-03T08:16:10.912Z,57.19
2023-03-03T08:18:44.834Z,56.92
2023-03-03T08:21:17.972Z,56.51
2023-03-03T08:23:50.700Z,57.00
2023-03-03T08:26:26.234Z,56.99
2023-03-03T08:28:58.002Z,55.48
2023-03-03T08:31:40.892Z,55.08
2023-03-03T08:34:13.147Z,56.05
2023-03-03T08:36:44.759Z,56.75
2023-03-03T08:39:16.364Z,56.58
2023-03-03T08:41:47.990Z,56.77
2023-03-03T08:44:19.615Z,56.16
2023-03-03T08:46:51.207Z,56.53
2023-03-03T08:49:22.891Z,55.35
2023-03-03T08:51:54.541Z,54.33
2023-03-03T08:54:26.530Z,54.78
2023-03-03T08:56:58.225Z,53.80
2023-03-03T08:59:29.922Z,55.33
2023-03-03T09:02:01.614Z,54.38
2023-03-03T09:04:33.596Z,55.16
2023-03-03T09:07:05.327Z,53.45
2023-03-03T09:09:37.076Z,53.36
2023-03-03T09:12:16.711Z,53.28
2023-03-03T09:14:48.501Z,54.30
2023-03-03T09:17:32.599Z,53.40
2023-03-03T09:20:37.901Z,53.16
2023-03-03T09:23:33.801Z,53.71
2023-03-03T09:26:17.634Z,53.47
2023-03-03T09:28:49.368Z,53.32
2023-03-03T09:31:43.500Z,54.73
2023-03-03T09:34:41.256Z,53.71
2023-03-03T09:37:42.414Z,53.07
2023-03-03T09:40:49.273Z,52.44
2023-03-03T09:43:36.869Z,51.39
2023-03-03T09:46:42.500Z,52.09
2023-03-03T09:49:17.249Z,51.74
2023-03-03T09:52:03.834Z,52.74
2023-03-03T09:54:56.338Z,52.86
2023-03-03T09:58:10.136Z,53.00
2023-03-03T10:00:45.604Z,52.79
2023-03-03T10:04:02.065Z,53.02
2023-03-03T10:06:55.150Z,51.30
2023-03-03T10:10:10.283Z,49.77
2023-03-03T10:12:46.464Z,48.76
2023-03-03T10:15:44.729Z,50.26
2023-03-03T10:18:32.177Z,50.30
2023-03-03T10:21:22.670Z,49.95
2023-03-03T10:24:20.505Z,48.88
2023-03-03T10:27:15.448Z,49.35
2023-03-03T10:30:07.725Z,49.63
2023-03-03T10:33:31.871Z,48.66
2023-03-03T10:36:48.030Z,49.05
2023-03-03T10:40:03.994Z,49.50
2023-03-03T10:42:47.720Z,49.26
2023-03-03T10:45:34.591Z,48.28
2023-03-03T10:48:12.078Z,48.04
2023-03-03T10:51:00.084Z,49.06
2023-03-03T10:53:41.246Z,48.73
2023-03-03T10:56:50.397Z,49.15
2023-03-03T10:59:45.397Z,49.51
2023-03-03T11:02:38.255Z,49.48
2023-03-03T11:05:31.340Z,49.88
2023-03-03T11:08:12.705Z,48.28
2023-03-03T11:11:27.202Z,48.61
2023-03-03T11:14:13.889Z,49.88
2023-03-03T11:17:14.430Z,49.13
2023-03-03T11:20:34.071Z,50.71
2023-03-03T11:23:50.019Z,49.33
2023-03-03T11:26:30.490Z,49.86
2023-03-03T11:29:16.805Z,48.85
2023-03-03T11:32:00.572Z,48.80
2023-03-03T11:34:52.564Z,49.30
2023-03-03T11:37:39.482Z,47.92
2023-03-03T11:40:26.051Z,48.29
2023-03-03T11:43:30.071Z,47.94
2023-03-03T11:46:14.636Z,48.60
2023-03-03T11:49:09.284Z,46.61
2023-03-03T11:51:40.807Z,47.26
2023-03-03T11:54:28.906Z,47.61
2023-03-03T11:57:32.560Z,46.54
2023-03-03T12:00:16.624Z,47.61
2023-03-03T12:03:11.258Z,46.86
2023-03-03T12:05:48.839Z,46.13
2023-03-03T12:08:31.955Z,45.08
2023-03-03T12:11:06.412Z,46.73
2023-03-03T12:13:55.858Z,46.65
2023-03-03T12:16:52.386Z,50.35
2023-03-03T12:19:44.575Z,48.44
2023-03-03T12:22:25.296Z,47.58
2023-03-03T12:25:23.386Z,47.93
2023-03-03T12:28:10.974Z,46.95
2023-03-03T12:30:42.528Z,46.68
2023-03-03T12:33:50.393Z,46.74
2023-03-03T12:36:40.175Z,47.11
2023-03-03T12:39:38.705Z,46.58
2023-03-03T12:42:33.523Z,45.96
2023-03-03T12:45:22.948Z,46.50
2023-03-03T12:48:16.019Z,46.74
2023-03-03T12:51:06.321Z,45.58
2023-03-03T12:53:51.895Z,46.00
2023-03-03T12:56:40.148Z,45.26
2023-03-03T12:59:30.201Z,45.34
2023-03-03T13:02:39.015Z,44.32
2023-03-03T13:05:20.252Z,48.36
2023-03-03T13:08:46.009Z,44.75
2023-03-03T13:11:30.808Z,44.84
2023-03-03T13:14:08.150Z,43.87
2023-03-03T13:17:08.893Z,45.28
2023-03-03T13:19:59.687Z,44.58
2023-03-03T13:23:03.692Z,45.53
2023-03-03T13:26:13.548Z,45.95
2023-03-03T13:28:48.277Z,44.01
2023-03-03T13:31:23.193Z,43.58
2023-03-03T13:34:02.318Z,43.69
2023-03-03T13:37:01.973Z,43.98
2023-03-03T13:39:43.339Z,44.70
2023-03-03T13:42:40.275Z,45.84
2023-03-03T13:45:47.706Z,45.15
2023-03-03T13:48:57.006Z,44.52
2023-03-03T13:52:00.877Z,44.90
2023-03-03T13:55:21.700Z,43.77
2023-03-03T13:58:28.867Z,44.32
2023-03-03T14:01:18.115Z,44.85
2023-03-03T14:04:10.562Z,43.61
2023-03-03T14:06:52.837Z,42.69
2023-03-03T14:09:42.379Z,44.42
2023-03-03T14:12:21.724Z,43.40
2023-03-03T14:15:16.233Z,43.90
2023-03-03T14:18:06.173Z,43.92
2023-03-03T14:20:43.910Z,43.44
2023-03-03T14:23:45.348Z,43.67
2023-03-03T14:26:17.028Z,43.32
2023-03-03T14:28:50.482Z,42.85
2023-03-03T14:31:29.521Z,43.46
2023-03-03T14:34:14.413Z,44.45
2023-03-03T14:36:46.039Z,42.84
2023-03-03T14:39:29.946Z,44.64
2023-03-03T14:42:30.527Z,44.69
2023-03-03T14:45:29.510Z,43.78
2023-03-03T14:48:13.973Z,43.26
2023-03-03T14:51:14.912Z,43.49
2023-03-03T14:53:48.792Z,42.31
2023-03-03T14:56:30.258Z,41.79
2023-03-03T14:59:18.813Z,42.41
2023-03-03T15:02:16.312Z,43.30
2023-03-03T15:04:48.686Z,44.36
2023-03-03T15:07:26.173Z,43.95
2023-03-03T15:09:57.812Z,43.06
2023-03-03T15:12:32.212Z,43.13
2023-03-03T15:15:07.208Z,42.89
2023-03-03T15:17:54.520Z,43.38
2023-03-03T15:20:41.275Z,44.31
2023-03-03T15:23:56.262Z,43.32
2023-03-03T15:26:45.933Z,44.32
2023-03-03T15:29:27.925Z,44.01
2023-03-03T15:32:05.334Z,44.05
2023-03-03T15:34:44.831Z,43.26
2023-03-03T15:37:35.132Z,43.60
2023-03-03T15:40:30.716Z,43.92
2023-03-03T15:43:05.083Z,46.44
2023-03-03T15:45:36.611Z,44.87
2023-03-03T15:48:25.528Z,44.95
2023-03-03T15:51:20.320Z,45.28
2023-03-03T15:54:00.866Z,47.12
2023-03-03T15:56:47.866Z,45.95
2023-03-03T15:59:19.485Z,45.60
2023-03-03T16:02:06.470Z,46.23
2023-03-03T16:04:48.004Z,46.38
2023-03-03T16:07:57.041Z,48.08
2023-03-03T16:10:46.913Z,47.15
2023-03-03T16:13:33.800Z,46.49
2023-03-03T16:16:41.906Z,47.26
2023-03-03T16:19:20.298Z,46.81
2023-03-03T16:22:13.616Z,47.69
2023-03-03T16:25:07.121Z,46.57
2023-03-03T16:28:10.409Z,48.38
2023-03-03T16:31:00.599Z,48.56
2023-03-03T16:33:39.537Z,47.03
2023-03-03T16:36:17.281Z,48.12
2023-03-03T16:39:19.987Z,47.77
2023-03-03T16:42:03.293Z,49.32
2023-03-03T16:44:53.248Z,48.47
2023-03-03T16:47:49.721Z,47.65
2023-03-03T16:50:36.147Z,49.17
2023-03-03T16:53:22.669Z,47.64
2023-03-03T16:56:07.589Z,47.46
2023-03-03T16:58:55.923Z,48.05
2023-03-03T17:01:39.627Z,48.53
2023-03-03T17:04:36.152Z,48.13
2023-03-03T17:07:16.602Z,48.77
2023-03-03T17:10:00.156Z,48.58
2023-03-03T17:12:40.545Z,47.56
2023-03-03T17:15:30.726Z,47.71
2023-03-03T17:18:49.442Z,47.10
2023-03-03T17:21:48.617Z,47.09
2023-03-03T17:24:55.524Z,46.48
2023-03-03T17:28:12.356Z,47.22
2023-03-03T17:30:47.065Z,47.01
2023-03-03T17:33:24.545Z,46.83
2023-03-03T17:36:17.323Z,45.43
2023-03-03T17:39:12.961Z,47.08
2023-03-03T17:41:56.455Z,46.08
2023-03-03T17:44:50.708Z,47.16
2023-03-03T17:47:45.690Z,45.45
2023-03-03T17:50:56.802Z,47.09
2023-03-03T17:53:53.562Z,46.21
2023-03-03T17:56:41.240Z,44.67
2023-03-03T18:00:00.962Z,45.69
2023-03-03T18:02:53.272Z,45.64
2023-03-03T18:05:37.471Z,47.44
2023-03-03T18:08:30.964Z,47.02
2023-03-03T18:11:02.495Z,47.15
2023-03-03T18:13:52.472Z,47.28
2023-03-03T18:16:45.617Z,47.17
2023-03-03T18:19:51.621Z,48.11
2023-03-03T18:22:29.167Z,50.06
2023-03-03T18:25:10.016Z,51.43
2023-03-03T18:27:43.957Z,52.19
2023-03-03T18:30:19.222Z,50.73
2023-03-03T18:32:56.916Z,50.42
2023-03-03T18:35:39.191Z,50.73
2023-03-03T18:38:16.957Z,50.15
2023-03-03T18:40:57.832Z,51.45
2023-03-03T18:43:52.139Z,51.29
2023-03-03T18:46:23.834Z,52.37
2023-03-03T18:49:01.328Z,50.33
2023-03-03T18:51:38.695Z,51.10
2023-03-03T18:54:13.058Z,52.48
2023-03-03T18:56:58.705Z,53.47
2023-03-03T18:59:30.285Z,55.80
2023-03-03T19:02:28.659Z,55.08
2023-03-03T19:05:36.786Z,53.73
2023-03-03T19:08:23.692Z,52.93
2023-03-03T19:11:03.371Z,52.86
2023-03-03T19:13:35.039Z,52.22
2023-03-03T19:16:26.715Z,51.37
2023-03-03T19:19:02.406Z,50.77
2023-03-03T19:21:37.409Z,51.70
2023-03-03T19:25:13.947Z,51.99
2023-03-03T19:28:14.841Z,51.61
2023-03-03T19:31:11.453Z,51.77
2023-03-03T19:34:22.869Z,52.93
2023-03-03T19:37:16.276Z,51.01
2023-03-03T19:40:06.236Z,51.09
2023-03-03T19:43:15.522Z,52.16
2023-03-03T19:46:15.214Z,50.19
2023-03-03T19:49:06.690Z,50.90
2023-03-03T19:52:02.612Z,51.72
2023-03-03T19:55:02.587Z,50.87
2023-03-03T19:57:46.267Z,51.57
2023-03-03T20:00:26.758Z,53.01
2023-03-03T20:03:16.375Z,50.73
2023-03-03T20:05:54.775Z,50.86
2023-03-03T20:08:49.089Z,51.27
2023-03-03T20:11:39.405Z,51.25
2023-03-03T20:14:35.807Z,51.14
2023-03-03T20:17:43.193Z,50.13
2023-03-03T20:20:33.703Z,50.90
2023-03-03T20:23:21.846Z,51.86
2023-03-03T20:26:20.268Z,51.80
2023-03-03T20:29:13.228Z,53.14
2023-03-03T20:32:03.582Z,53.33
2023-03-03T20:34:35.267Z,54.25
2023-03-03T20:37:22.492Z,52.76
2023-03-03T20:40:00.177Z,53.36
2023-03-03T20:42:53.028Z,53.43
2023-03-03T20:45:49.116Z,53.41
2023-03-03T20:48:26.981Z,53.67
2023-03-03T20:51:07.582Z,53.20
2023-03-03T20:53:39.080Z,52.57
2023-03-03T20:56:23.340Z,52.44
2023-03-03T20:59:05.499Z,53.36
2023-03-03T21:02:19.501Z,52.73
2023-03-03T21:05:11.980Z,53.23
2023-03-03T21:07:52.476Z,53.34
2023-03-03T21:10:28.499Z,52.96
2023-03-03T21:13:20.064Z,52.33
2023-03-03T21:16:00.112Z,51.48
2023-03-03T21:18:31.990Z,51.79
2023-03-03T21:21:04.590Z,52.83
2023-03-03T21:23:36.263Z,52.72
2023-03-03T21:26:07.857Z,53.29
2023-03-03T21:29:01.092Z,51.62
2023-03-03T21:31:45.469Z,52.50
2023-03-03T21:34:23.795Z,53.50
2023-03-03T21:36:57.177Z,52.97
2023-03-03T21:39:40.831Z,52.95
2023-03-03T21:42:41.762Z,53.21
2023-03-03T21:45:15.786Z,53.45
2023-03-03T21:47:48.356Z,54.70
2023-03-03T21:50:19.977Z,53.68
2023-03-03T21:52:51.635Z,52.98
2023-03-03T21:55:25.566Z,53.85
2023-03-03T21:57:58.067Z,51.38
2023-03-03T22:00:29.686Z,52.20
2023-03-03T22:03:01.363Z,53.57
2023-03-03T22:05:32.946Z,51.78
2023-03-03T22:08:04.821Z,53.82
2023-03-03T22:10:36.442Z,53.56
2023-03-03T22:13:08.029Z,53.08
2023-03-03T22:15:39.802Z,53.95
2023-03-03T22:18:11.463Z,54.21
2023-03-03T22:20:43.070Z,53.87
2023-03-03T22:23:15.551Z,53.41
2023-03-03T22:25:47.279Z,53.98
2023-03-03T22:28:18.880Z,54.86
2023-03-03T22:30:50.622Z,51.70
2023-03-03T22:33:22.277Z,52.46
2023-03-03T22:35:53.971Z,52.88
2023-03-03T22:38:25.650Z,51.80
2023-03-03T22:40:57.309Z,52.53
2023-03-03T22:43:29.086Z,51.24
2023-03-03T22:46:01.186Z,51.96
2023-03-03T22:48:33.000Z,52.39
2023-03-03T22:51:05.100Z,51.79
2023-03-03T22:53:36.679Z,51.87
2023-03-03T22:56:08.310Z,52.76
2023-03-03T22:58:40.020Z,51.64
2023-03-03T23:01:11.597Z,51.60
2023-03-03T23:03:43.182Z,51.73
2023-03-03T23:06:14.776Z,51.80
2023-03-03T23:08:46.363Z,51.98
2023-03-03T23:11:17.970Z,51.66
2023-03-03T23:13:49.542Z,51.54
2023-03-03T23:16:21.142Z,51.72
2023-03-03T23:18:52.797Z,52.61
2023-03-03T23:21:24.359Z,52.69
2023-03-03T23:23:55.983Z,52.87
2023-03-03T23:26:27.628Z,52.48
2023-03-03T23:28:59.265Z,52.99
2023-03-03T23:31:31.260Z,53.22
2023-03-03T23:34:02.869Z,52.77
2023-03-03T23:36:34.487Z,52.86
2023-03-03T23:39:06.241Z,53.11
2023-03-03T23:41:37.806Z,54.71
2023-03-03T23:44:09.403Z,54.98
2023-03-03T23:46:41.132Z,54.89
2023-03-03T23:49:12.828Z,54.41
2023-03-03T23:51:44.482Z,55.31
2023-03-03T23:54:16.175Z,54.89
2023-03-03T23:56:47.784Z,54.27
2023-03-03T23:59:19.597Z,54.64
